Wetterdaten: Woche 19.05.03 - 25.05.03 (KW21)
Datum Zeit Temperatur Luftfeuchte Luftdruck Regenmenge Wind Richtung Taupunkt Windchill
19.05.2003 00:00 14.7 C 98 % 1017.3 hPa 0.0 l/m 0.0 km/h (0 Bft) N 14.3 C 14.7 C
19.05.2003 01:00 14.7 C 98 % 1017.3 hPa 0.0 l/m 0.3 km/h (0 Bft) O-SO 14.3 C 14.7 C
19.05.2003 02:00 14.6 C 99 % 1017.3 hPa 0.0 l/m 0.1 km/h (0 Bft) N-NW 14.5 C 14.6 C
19.05.2003 03:00 14.5 C 98 % 1017.3 hPa 0.0 l/m 2.1 km/h (1 Bft) SO 14.3 C 14.5 C
19.05.2003 04:00 14.7 C 96 % 1017.3 hPa 0.0 l/m 0.1 km/h (0 Bft) N 14.0 C 14.7 C
19.05.2003 05:00 14.3 C 96 % 1016.9 hPa 0.0 l/m 1.3 km/h (1 Bft) SO 13.7 C 14.3 C
19.05.2003 06:00 14.5 C 95 % 1016.8 hPa 0.0 l/m 6.9 km/h (2 Bft) O-SO 13.6 C 14.5 C
19.05.2003 07:00 15.5 C 89 % 1016.3 hPa 0.0 l/m 4.3 km/h (1 Bft) SO 13.6 C 15.5 C
19.05.2003 08:00 16.1 C 86 % 1016.3 hPa 0.0 l/m 1.8 km/h (1 Bft) SO 13.8 C 16.1 C
19.05.2003 09:00 17.3 C 81 % 1016.1 hPa 0.0 l/m 4.6 km/h (1 Bft) SO 14.0 C 17.3 C
19.05.2003 10:00 18.7 C 73 % 1015.1 hPa 0.0 l/m 3.7 km/h (1 Bft) SO 13.8 C 18.7 C
19.05.2003 11:00 21.3 C 62 % 1014.2 hPa 0.0 l/m 5.2 km/h (1 Bft) O-SO 13.8 C 21.3 C
19.05.2003 12:00 23.5 C 52 % 1013.0 hPa 0.0 l/m 7.5 km/h (2 Bft) O-SO 13.1 C 23.5 C
19.05.2003 13:00 22.8 C 51 % 1011.9 hPa 0.0 l/m 10.0 km/h (2 Bft) NO 12.0 C 22.8 C
19.05.2003 14:00 24.0 C 51 % 1010.6 hPa 0.0 l/m 16.4 km/h (3 Bft) SO 13.1 C 24.0 C
19.05.2003 15:00 23.9 C 47 % 1009.7 hPa 0.0 l/m 12.4 km/h (3 Bft) W 12.0 C 23.9 C
19.05.2003 16:00 22.7 C 50 % 1009.6 hPa 0.0 l/m 26.5 km/h (4 Bft) NW 11.6 C 22.7 C
19.05.2003 17:00 15.3 C 88 % 1012.6 hPa 3.6 l/m 44.1 km/h (6 Bft) W-NW 13.4 C 15.3 C
19.05.2003 18:00 13.3 C 95 % 1014.9 hPa 0.6 l/m 49.0 km/h (6 Bft) NW 12.5 C 13.3 C
19.05.2003 19:00 12.4 C 94 % 1017.3 hPa 0.6 l/m 27.4 km/h (4 Bft) NW 11.4 C 12.4 C
19.05.2003 20:00 11.6 C 98 % 1017.8 hPa 0.6 l/m 5.4 km/h (1 Bft) S-SO 11.3 C 11.6 C
19.05.2003 21:00 11.6 C 97 % 1018.4 hPa 0.0 l/m 1.7 km/h (1 Bft) S 11.2 C 11.6 C
19.05.2003 22:00 11.5 C 98 % 1018.4 hPa 0.0 l/m 0.9 km/h (0 Bft) SO 11.3 C 11.5 C
19.05.2003 23:00 11.6 C 99 % 1018.9 hPa 0.0 l/m 0.7 km/h (0 Bft) W 11.4 C 11.6 C
20.05.2003 00:00 11.1 C 100 % 1018.4 hPa 0.0 l/m 4.0 km/h (1 Bft) W-NW 11.1 C 11.1 C
20.05.2003 01:00 10.9 C 100 % 1017.8 hPa 0.0 l/m 1.9 km/h (1 Bft) W-NW 10.8 C 10.9 C
20.05.2003 02:00 11.0 C 96 % 1017.7 hPa 0.0 l/m 2.4 km/h (1 Bft) W-NW 10.4 C 11.0 C
20.05.2003 03:00 10.7 C 95 % 1018.0 hPa 0.0 l/m 7.7 km/h (2 Bft) W-NW 9.9 C 10.7 C
20.05.2003 04:00 10.4 C 89 % 1018.4 hPa 0.0 l/m 18.7 km/h (3 Bft) W-NW 8.6 C 10.3 C
20.05.2003 05:00 9.7 C 94 % 1018.4 hPa 0.0 l/m 12.2 km/h (2 Bft) W-NW 8.8 C 8.3 C
20.05.2003 06:00 10.3 C 88 % 1018.4 hPa 0.0 l/m 12.1 km/h (2 Bft) W-NW 8.5 C 10.2 C
20.05.2003 07:00 10.7 C 82 % 1019.3 hPa 0.0 l/m 19.0 km/h (3 Bft) W-NW 7.8 C 10.7 C
20.05.2003 08:00 10.7 C 77 % 1019.4 hPa 0.0 l/m 23.2 km/h (4 Bft) W-NW 6.8 C 10.7 C
20.05.2003 09:00 10.9 C 72 % 1019.4 hPa 0.0 l/m 21.7 km/h (4 Bft) W-NW 6.0 C 10.9 C
20.05.2003 10:00 11.8 C 67 % 1019.4 hPa 0.0 l/m 20.4 km/h (4 Bft) W-NW 5.9 C 11.8 C
20.05.2003 11:00 10.7 C 72 % 1020.2 hPa 0.0 l/m 30.7 km/h (5 Bft) NW 5.9 C 9.5 C
20.05.2003 12:00 13.2 C 61 % 1019.8 hPa 0.0 l/m 21.4 km/h (4 Bft) W-NW 5.8 C 13.2 C
20.05.2003 13:00 14.9 C 52 % 1019.4 hPa 0.0 l/m 22.4 km/h (4 Bft) NW 5.1 C 14.9 C
20.05.2003 14:00 12.0 C 68 % 1019.7 hPa 0.6 l/m 30.5 km/h (5 Bft) NW 6.0 C 12.0 C
20.05.2003 15:00 12.8 C 72 % 1019.9 hPa 0.0 l/m 14.7 km/h (3 Bft) NW 7.8 C 12.8 C
20.05.2003 16:00 12.9 C 59 % 1019.7 hPa 0.0 l/m 34.9 km/h (5 Bft) NW 5.0 C 12.9 C
20.05.2003 17:00 13.5 C 57 % 1020.5 hPa 0.0 l/m 28.2 km/h (4 Bft) NW 5.1 C 13.5 C
20.05.2003 18:00 13.9 C 55 % 1020.5 hPa 0.0 l/m 19.6 km/h (3 Bft) W-NW 5.1 C 13.9 C
20.05.2003 19:00 11.6 C 75 % 1021.3 hPa 0.9 l/m 13.3 km/h (3 Bft) W-NW 7.2 C 11.6 C
20.05.2003 20:00 10.3 C 90 % 1021.5 hPa 0.0 l/m 4.2 km/h (1 Bft) W 8.8 C 10.2 C
20.05.2003 21:00 8.5 C 97 % 1022.5 hPa 0.0 l/m 3.8 km/h (1 Bft) SO 8.1 C 8.1 C
20.05.2003 22:00 7.7 C 100 % 1022.5 hPa 0.0 l/m 2.8 km/h (1 Bft) SO 7.7 C 7.3 C
20.05.2003 23:00 7.2 C 100 % 1022.5 hPa 0.0 l/m 4.3 km/h (1 Bft) O-SO 7.2 C 6.5 C
21.05.2003 00:00 7.8 C 100 % 1023.0 hPa 0.9 l/m 2.2 km/h (1 Bft) SO 7.8 C 7.5 C
21.05.2003 01:00 8.2 C 100 % 1023.1 hPa 0.0 l/m 1.5 km/h (1 Bft) SO 8.2 C 8.0 C
21.05.2003 02:00 7.8 C 100 % 1022.9 hPa 0.0 l/m 0.6 km/h (0 Bft) SO 7.8 C 7.7 C
21.05.2003 03:00 6.9 C 100 % 1022.7 hPa 0.0 l/m 0.7 km/h (0 Bft) SO 6.9 C 6.9 C
21.05.2003 04:00 6.5 C 100 % 1022.5 hPa 0.3 l/m 0.5 km/h (0 Bft) SO 6.5 C 6.5 C
21.05.2003 05:00 7.1 C 100 % 1022.7 hPa 0.6 l/m 4.4 km/h (1 Bft) NW 7.1 C 6.4 C
21.05.2003 06:00 7.3 C 100 % 1023.6 hPa 0.6 l/m 8.6 km/h (2 Bft) W-NW 7.3 C 5.8 C
21.05.2003 07:00 7.7 C 100 % 1023.7 hPa 0.3 l/m 0.0 km/h (0 Bft) N 7.6 C 7.7 C
21.05.2003 08:00 8.6 C 96 % 1024.6 hPa 0.0 l/m 4.9 km/h (1 Bft) W-NW 8.0 C 7.9 C
21.05.2003 09:00 9.8 C 86 % 1024.6 hPa 0.0 l/m 4.2 km/h (1 Bft) W-NW 7.5 C 9.5 C
21.05.2003 10:00 9.9 C 82 % 1024.6 hPa 0.0 l/m 12.4 km/h (3 Bft) W-NW 7.1 C 8.6 C
21.05.2003 11:00 11.3 C 70 % 1024.6 hPa 0.0 l/m 30.0 km/h (5 Bft) W-NW 6.0 C 11.3 C
21.05.2003 12:00 11.1 C 61 % 1025.5 hPa 0.0 l/m 29.6 km/h (5 Bft) NW 4.0 C 11.1 C
21.05.2003 13:00 11.6 C 59 % 1025.6 hPa 0.0 l/m 34.3 km/h (5 Bft) NW 4.0 C 11.6 C
21.05.2003 14:00 11.1 C 67 % 1026.0 hPa 0.3 l/m 21.7 km/h (4 Bft) NW 5.1 C 10.3 C
21.05.2003 15:00 12.3 C 56 % 1026.0 hPa 0.0 l/m 33.3 km/h (5 Bft) NW 3.8 C 12.3 C
21.05.2003 16:00 12.4 C 56 % 1026.7 hPa 0.0 l/m 23.0 km/h (4 Bft) W-NW 3.9 C 12.4 C
21.05.2003 17:00 12.9 C 56 % 1026.7 hPa 0.0 l/m 15.8 km/h (3 Bft) W-NW 4.3 C 12.9 C
21.05.2003 18:00 12.3 C 58 % 1026.7 hPa 0.0 l/m 20.7 km/h (4 Bft) W-NW 4.2 C 12.3 C
21.05.2003 19:00 12.6 C 58 % 1026.7 hPa 0.0 l/m 8.4 km/h (2 Bft) W-NW 4.6 C 12.6 C
21.05.2003 20:00 11.6 C 64 % 1027.6 hPa 0.0 l/m 6.2 km/h (2 Bft) W-NW 4.9 C 11.6 C
21.05.2003 21:00 10.4 C 74 % 1027.7 hPa 0.0 l/m 2.0 km/h (1 Bft) SO 5.9 C 10.2 C
21.05.2003 22:00 8.4 C 84 % 1028.4 hPa 0.0 l/m 2.3 km/h (1 Bft) SO 5.8 C 8.2 C
21.05.2003 23:00 8.0 C 88 % 1028.8 hPa 0.0 l/m 9.1 km/h (2 Bft) O-SO 6.1 C 6.4 C
22.05.2003 00:00 7.7 C 89 % 1029.6 hPa 0.0 l/m 5.5 km/h (1 Bft) O-SO 6.0 C 6.8 C
22.05.2003 01:00 7.8 C 91 % 1029.5 hPa 0.0 l/m 0.3 km/h (0 Bft) O-SO 6.4 C 7.8 C
22.05.2003 02:00 7.7 C 91 % 1028.9 hPa 0.0 l/m 0.0 km/h (0 Bft) N 6.3 C 7.7 C
22.05.2003 03:00 7.4 C 95 % 1028.8 hPa 0.0 l/m 0.0 km/h (0 Bft) N 6.7 C 7.4 C
22.05.2003 04:00 7.3 C 97 % 1028.8 hPa 0.0 l/m 0.0 km/h (0 Bft) N 6.8 C 7.3 C
22.05.2003 05:00 7.6 C 96 % 1028.7 hPa 0.0 l/m 0.0 km/h (0 Bft) N 7.0 C 7.6 C
22.05.2003 06:00 7.8 C 97 % 1028.0 hPa 0.0 l/m 0.0 km/h (0 Bft) N 7.4 C 7.8 C
22.05.2003 07:00 8.4 C 96 % 1028.7 hPa 0.3 l/m 0.0 km/h (0 Bft) N 7.7 C 8.4 C
22.05.2003 08:00 9.4 C 95 % 1028.8 hPa 0.6 l/m 0.0 km/h (0 Bft) N 8.7 C 9.4 C
22.05.2003 09:00 10.0 C 94 % 1028.8 hPa 0.3 l/m 0.6 km/h (0 Bft) SO 9.2 C 10.0 C
22.05.2003 10:00 10.3 C 92 % 1028.8 hPa 0.0 l/m 1.7 km/h (1 Bft) SO 9.0 C 10.3 C
22.05.2003 11:00 10.1 C 92 % 1028.0 hPa 0.0 l/m 4.1 km/h (1 Bft) O-SO 9.0 C 10.0 C
22.05.2003 12:00 10.6 C 93 % 1027.7 hPa 0.3 l/m 2.2 km/h (1 Bft) NO 9.4 C 10.6 C
22.05.2003 13:00 11.2 C 94 % 1027.7 hPa 0.3 l/m 5.4 km/h (1 Bft) NO 10.2 C 11.2 C
22.05.2003 14:00 11.4 C 95 % 1027.7 hPa 0.3 l/m 4.7 km/h (1 Bft) S-SO 10.7 C 11.4 C
22.05.2003 15:00 11.6 C 94 % 1027.7 hPa 0.0 l/m 6.0 km/h (2 Bft) S-SO 10.6 C 11.6 C
22.05.2003 16:00 11.5 C 96 % 1027.4 hPa 0.3 l/m 4.8 km/h (1 Bft) SO 10.8 C 11.5 C
22.05.2003 17:00 11.5 C 99 % 1026.7 hPa 0.6 l/m 4.1 km/h (1 Bft) SO 11.3 C 11.5 C
22.05.2003 18:00 11.4 C 100 % 1026.7 hPa 0.3 l/m 7.6 km/h (2 Bft) SO 11.4 C 11.4 C
22.05.2003 19:00 11.8 C 100 % 1026.7 hPa 0.0 l/m 8.2 km/h (2 Bft) SO 11.8 C 11.8 C
22.05.2003 20:00 12.0 C 99 % 1026.7 hPa 0.0 l/m 5.2 km/h (1 Bft) SO 11.8 C 12.0 C
22.05.2003 21:00 11.8 C 100 % 1026.7 hPa 0.0 l/m 3.2 km/h (1 Bft) SO 11.8 C 11.8 C
22.05.2003 22:00 11.8 C 100 % 1026.7 hPa 0.0 l/m 3.7 km/h (1 Bft) SO 11.8 C 11.8 C
22.05.2003 23:00 11.9 C 99 % 1025.9 hPa 0.0 l/m 0.9 km/h (0 Bft) SO 11.7 C 11.9 C
23.05.2003 00:00 11.8 C 100 % 1025.6 hPa 0.0 l/m 2.0 km/h (1 Bft) SO 11.7 C 11.8 C
23.05.2003 01:00 11.7 C 100 % 1025.3 hPa 0.0 l/m 5.5 km/h (1 Bft) O-SO 11.7 C 11.7 C
23.05.2003 02:00 11.8 C 100 % 1024.6 hPa 0.0 l/m 1.8 km/h (1 Bft) SO 11.8 C 11.8 C
23.05.2003 03:00 11.7 C 100 % 1024.6 hPa 0.0 l/m 2.1 km/h (1 Bft) O-SO 11.7 C 11.7 C
23.05.2003 04:00 11.6 C 100 % 1023.9 hPa 0.0 l/m 0.1 km/h (0 Bft) N 11.6 C 11.6 C
23.05.2003 05:00 11.5 C 100 % 1023.6 hPa 0.0 l/m 0.4 km/h (0 Bft) O-SO 11.5 C 11.5 C
23.05.2003 06:00 11.6 C 100 % 1023.6 hPa 0.0 l/m 0.5 km/h (0 Bft) O 11.6 C 11.6 C
23.05.2003 07:00 12.0 C 100 % 1023.6 hPa 0.0 l/m 0.1 km/h (0 Bft) N 11.9 C 12.0 C
23.05.2003 08:00 13.3 C 94 % 1022.8 hPa 0.0 l/m 6.2 km/h (2 Bft) SO 12.3 C 13.3 C
23.05.2003 09:00 14.5 C 84 % 1022.5 hPa 0.0 l/m 6.1 km/h (2 Bft) SO 11.9 C 14.5 C
23.05.2003 10:00 16.5 C 77 % 1022.0 hPa 0.0 l/m 10.7 km/h (2 Bft) SO 12.4 C 16.5 C
23.05.2003 11:00 18.8 C 67 % 1021.3 hPa 0.0 l/m 11.4 km/h (2 Bft) O-SO 12.5 C 18.8 C
23.05.2003 12:00 20.3 C 60 % 1020.4 hPa 0.0 l/m 7.8 km/h (2 Bft) SO 12.2 C 20.3 C
23.05.2003 13:00 21.9 C 53 % 1019.2 hPa 0.0 l/m 3.7 km/h (1 Bft) SO 11.9 C 21.9 C
23.05.2003 14:00 23.3 C 49 % 1018.1 hPa 0.0 l/m 5.4 km/h (1 Bft) O-SO 11.9 C 23.3 C
23.05.2003 15:00 24.5 C 47 % 1017.2 hPa 0.0 l/m 1.9 km/h (1 Bft) NW 12.4 C 24.5 C
23.05.2003 16:00 25.5 C 45 % 1016.2 hPa 0.0 l/m 2.6 km/h (1 Bft) O-SO 12.5 C 25.5 C
23.05.2003 17:00 25.7 C 44 % 1014.7 hPa 0.0 l/m 1.9 km/h (1 Bft) SO 12.4 C 25.7 C
23.05.2003 18:00 25.6 C 44 % 1014.2 hPa 0.0 l/m 1.8 km/h (1 Bft) W-NW 12.4 C 25.6 C
23.05.2003 19:00 24.4 C 50 % 1014.1 hPa 0.0 l/m 1.5 km/h (1 Bft) O-SO 13.3 C 24.4 C
23.05.2003 20:00 20.5 C 62 % 1013.2 hPa 0.0 l/m 9.5 km/h (2 Bft) O-SO 12.9 C 20.5 C
23.05.2003 21:00 17.0 C 74 % 1013.2 hPa 0.0 l/m 7.9 km/h (2 Bft) O-SO 12.3 C 17.0 C
23.05.2003 22:00 15.1 C 81 % 1013.2 hPa 0.0 l/m 5.2 km/h (1 Bft) O-SO 11.8 C 15.1 C
23.05.2003 23:00 13.6 C 88 % 1012.7 hPa 0.0 l/m 2.8 km/h (1 Bft) O-SO 11.6 C 13.6 C
24.05.2003 00:00 12.9 C 92 % 1012.2 hPa 0.0 l/m 2.7 km/h (1 Bft) O-SO 11.6 C 12.9 C
24.05.2003 01:00 12.1 C 95 % 1012.2 hPa 0.0 l/m 0.4 km/h (0 Bft) O-SO 11.3 C 12.1 C
24.05.2003 02:00 11.5 C 98 % 1011.5 hPa 0.0 l/m 0.9 km/h (0 Bft) O-SO 11.1 C 11.5 C
24.05.2003 03:00 10.9 C 99 % 1010.9 hPa 0.0 l/m 2.3 km/h (1 Bft) O-SO 10.7 C 10.9 C
24.05.2003 04:00 10.3 C 100 % 1010.1 hPa 0.0 l/m 1.3 km/h (1 Bft) O-SO 10.3 C 10.3 C
24.05.2003 05:00 10.1 C 100 % 1010.1 hPa 0.0 l/m 1.6 km/h (1 Bft) O-SO 10.1 C 10.1 C
24.05.2003 06:00 10.8 C 99 % 1010.1 hPa 0.0 l/m 0.6 km/h (0 Bft) O 10.7 C 10.8 C
24.05.2003 07:00 12.1 C 95 % 1009.3 hPa 0.0 l/m 0.0 km/h (0 Bft) N 11.3 C 12.1 C
24.05.2003 08:00 13.5 C 87 % 1009.1 hPa 0.0 l/m 0.0 km/h (0 Bft) NW 11.3 C 13.5 C
24.05.2003 09:00 15.8 C 77 % 1009.1 hPa 0.0 l/m 2.4 km/h (1 Bft) W-NW 11.8 C 15.8 C
24.05.2003 10:00 19.0 C 65 % 1008.1 hPa 0.0 l/m 2.1 km/h (1 Bft) W-NW 12.3 C 19.0 C
24.05.2003 11:00 21.4 C 56 % 1007.5 hPa 0.0 l/m 1.9 km/h (1 Bft) NW 12.2 C 21.4 C
24.05.2003 12:00 23.2 C 48 % 1007.0 hPa 0.0 l/m 2.6 km/h (1 Bft) W-NW 11.7 C 23.2 C
24.05.2003 13:00 25.3 C 42 % 1006.7 hPa 0.0 l/m 0.2 km/h (0 Bft) N 11.4 C 25.3 C
24.05.2003 14:00 26.9 C 35 % 1005.9 hPa 0.0 l/m 3.0 km/h (1 Bft) W-NW 10.3 C 26.9 C
24.05.2003 15:00 28.6 C 34 % 1005.3 hPa 0.0 l/m 1.3 km/h (1 Bft) O-NO 11.1 C 28.6 C
24.05.2003 16:00 28.5 C 33 % 1004.9 hPa 0.0 l/m 6.8 km/h (2 Bft) W-NW 10.7 C 28.5 C
24.05.2003 17:00 27.0 C 42 % 1004.8 hPa 0.0 l/m 6.6 km/h (2 Bft) W-NW 13.1 C 27.0 C
24.05.2003 18:00 26.5 C 50 % 1004.5 hPa 0.0 l/m 0.5 km/h (0 Bft) W-NW 15.2 C 26.5 C
24.05.2003 19:00 23.9 C 55 % 1004.6 hPa 0.0 l/m 6.7 km/h (2 Bft) NW 14.4 C 23.9 C
24.05.2003 20:00 21.6 C 51 % 1005.3 hPa 0.0 l/m 16.6 km/h (3 Bft) NW 11.0 C 21.6 C
24.05.2003 21:00 20.6 C 53 % 1006.7 hPa 0.0 l/m 38.6 km/h (5 Bft) NW 10.5 C 20.6 C
24.05.2003 22:00 18.8 C 60 % 1008.4 hPa 0.0 l/m 11.1 km/h (2 Bft) NW 10.9 C 18.8 C
24.05.2003 23:00 17.3 C 71 % 1009.6 hPa 0.0 l/m 25.6 km/h (4 Bft) NW 11.9 C 17.3 C
25.05.2003 00:00 15.6 C 77 % 1010.7 hPa 0.0 l/m 28.7 km/h (4 Bft) NW 11.5 C 15.6 C
25.05.2003 01:00 14.3 C 74 % 1011.1 hPa 0.0 l/m 29.7 km/h (5 Bft) NW 9.7 C 14.3 C
25.05.2003 02:00 13.7 C 77 % 1012.2 hPa 0.0 l/m 7.1 km/h (2 Bft) NW 9.7 C 13.7 C
25.05.2003 03:00 13.3 C 74 % 1012.2 hPa 0.0 l/m 10.4 km/h (2 Bft) NW 8.7 C 13.3 C
25.05.2003 04:00 13.0 C 72 % 1012.4 hPa 0.0 l/m 23.1 km/h (4 Bft) NW 8.0 C 13.0 C
25.05.2003 05:00 12.5 C 75 % 1013.2 hPa 0.0 l/m 24.3 km/h (4 Bft) W-NW 8.2 C 12.5 C
25.05.2003 06:00 12.0 C 73 % 1013.2 hPa 0.0 l/m 18.6 km/h (3 Bft) W-NW 7.4 C 12.0 C
25.05.2003 07:00 11.8 C 75 % 1013.9 hPa 0.0 l/m 14.5 km/h (3 Bft) NW 7.5 C 11.8 C
25.05.2003 08:00 11.8 C 77 % 1014.2 hPa 0.0 l/m 10.0 km/h (2 Bft) W-NW 7.9 C 11.8 C
25.05.2003 09:00 11.9 C 78 % 1014.2 hPa 0.0 l/m 8.4 km/h (2 Bft) W-NW 8.1 C 11.9 C
25.05.2003 10:00 12.1 C 76 % 1015.0 hPa 0.0 l/m 6.5 km/h (2 Bft) W-NW 8.0 C 12.1 C
25.05.2003 11:00 12.2 C 76 % 1015.3 hPa 0.0 l/m 9.1 km/h (2 Bft) W-NW 8.0 C 12.2 C
25.05.2003 12:00 12.2 C 76 % 1015.3 hPa 0.0 l/m 11.6 km/h (2 Bft) NW 8.1 C 12.2 C
25.05.2003 13:00 12.2 C 76 % 1015.3 hPa 0.0 l/m 13.4 km/h (3 Bft) W-NW 8.1 C 12.2 C
25.05.2003 14:00 12.2 C 79 % 1015.3 hPa 0.0 l/m 9.9 km/h (2 Bft) W-NW 8.6 C 12.2 C
25.05.2003 15:00 11.8 C 88 % 1015.6 hPa 0.0 l/m 0.1 km/h (0 Bft) NW 10.0 C 11.8 C
25.05.2003 16:00 12.2 C 90 % 1015.5 hPa 0.0 l/m 4.1 km/h (1 Bft) O-SO 10.6 C 12.2 C
25.05.2003 17:00 12.6 C 90 % 1015.5 hPa 0.0 l/m 4.1 km/h (1 Bft) O-SO 11.1 C 12.6 C
25.05.2003 18:00 12.3 C 88 % 1016.3 hPa 0.0 l/m 0.1 km/h (0 Bft) N 10.4 C 12.3 C
25.05.2003 19:00 11.8 C 96 % 1016.3 hPa 0.3 l/m 0.0 km/h (0 Bft) N 11.1 C 11.8 C
25.05.2003 20:00 11.8 C 99 % 1016.3 hPa 0.0 l/m 0.1 km/h (0 Bft) W-SW 11.7 C 11.8 C
25.05.2003 21:00 11.7 C 100 % 1017.2 hPa 0.3 l/m 0.7 km/h (0 Bft) S 11.7 C 11.7 C
25.05.2003 22:00 11.7 C 100 % 1017.3 hPa 0.6 l/m 0.0 km/h (0 Bft) N 11.7 C 11.7 C
25.05.2003 23:00 11.6 C 100 % 1018.2 hPa 0.6 l/m 0.7 km/h (0 Bft) SO 11.6 C 11.6 C
Min-Datum _ 21.05.03 24.05.03 24.05.03 - 19.05.03 - 20.05.03 21.05.03
_ Min-Zeit 04:11 16:23 17:56 - 00:00 - 14:19 05:47
Minimum _ 6.2 C 30 % 1003.9 hPa - 0.0 km/h (0 Bft) - 2.4 C 3.3 C
Max-Datum _ 24.05.03 19.05.03 21.05.03 19.05.03 19.05.03 - 24.05.03 24.05.03
_ Max-Zeit 16:05 02:39 23:57 17:54 16:48 - 18:26 16:05
Maximum _ 29.3 C 100 % 1029.8 hPa 3.6 l/m 74.6 km/h
NW (8 Bft)
- 16.4 C 29.3 C
Durchschnitt _ 13.7 C 81 % 1018.7 hPa #15.0 l/m 8.5 km/h (2 Bft) W-NW 9.8 C 13.6 C

Durchschnitt Minimum Temp.13.0 C
Durchschnitt Maximum Temp.14.4 C
© Kaiko 2003